sensor_id;sensor_type;location;lat;lon;timestamp;P1;durP1;ratioP1;P2;durP2;ratioP2
28724;SDS011;43472;48.980;9.646;2024-01-07T00:02:07;26.90;;;14.25;;
28724;SDS011;43472;48.980;9.646;2024-01-07T00:07:09;29.98;;;14.95;;
28724;SDS011;43472;48.980;9.646;2024-01-07T00:12:11;27.75;;;13.77;;
28724;SDS011;43472;48.980;9.646;2024-01-07T00:17:12;25.95;;;14.45;;
28724;SDS011;43472;48.980;9.646;2024-01-07T00:22:15;27.40;;;13.63;;
28724;SDS011;43472;48.980;9.646;2024-01-07T00:27:17;32.58;;;14.35;;
28724;SDS011;43472;48.980;9.646;2024-01-07T00:32:18;24.77;;;13.68;;
28724;SDS011;43472;48.980;9.646;2024-01-07T00:37:20;33.08;;;14.45;;
28724;SDS011;43472;48.980;9.646;2024-01-07T00:42:22;30.63;;;15.57;;
28724;SDS011;43472;48.980;9.646;2024-01-07T00:47:24;25.67;;;14.60;;
28724;SDS011;43472;48.980;9.646;2024-01-07T00:52:25;27.00;;;14.85;;
28724;SDS011;43472;48.980;9.646;2024-01-07T00:57:27;30.65;;;13.95;;
28724;SDS011;43472;48.980;9.646;2024-01-07T01:02:29;32.28;;;14.20;;
28724;SDS011;43472;48.980;9.646;2024-01-07T01:07:31;30.20;;;13.98;;
28724;SDS011;43472;48.980;9.646;2024-01-07T01:12:32;24.25;;;12.75;;
28724;SDS011;43472;48.980;9.646;2024-01-07T01:17:34;24.92;;;12.70;;
28724;SDS011;43472;48.980;9.646;2024-01-07T01:22:36;30.35;;;12.05;;
28724;SDS011;43472;48.980;9.646;2024-01-07T01:27:38;24.63;;;12.25;;
28724;SDS011;43472;48.980;9.646;2024-01-07T01:32:41;21.15;;;10.50;;
28724;SDS011;43472;48.980;9.646;2024-01-07T01:37:43;20.27;;;11.77;;
28724;SDS011;43472;48.980;9.646;2024-01-07T01:42:45;20.92;;;11.13;;
28724;SDS011;43472;48.980;9.646;2024-01-07T01:47:49;20.45;;;11.55;;
28724;SDS011;43472;48.980;9.646;2024-01-07T01:52:51;18.48;;;10.77;;
28724;SDS011;43472;48.980;9.646;2024-01-07T01:57:53;16.10;;;10.32;;
28724;SDS011;43472;48.980;9.646;2024-01-07T02:02:57;19.95;;;10.50;;
28724;SDS011;43472;48.980;9.646;2024-01-07T02:08:02;20.25;;;10.32;;
28724;SDS011;43472;48.980;9.646;2024-01-07T02:13:04;18.38;;;10.05;;
28724;SDS011;43472;48.980;9.646;2024-01-07T02:18:06;17.73;;;10.27;;
28724;SDS011;43472;48.980;9.646;2024-01-07T02:23:07;19.52;;;10.30;;
28724;SDS011;43472;48.980;9.646;2024-01-07T02:28:09;18.75;;;11.77;;
28724;SDS011;43472;48.980;9.646;2024-01-07T02:33:11;17.70;;;10.80;;
28724;SDS011;43472;48.980;9.646;2024-01-07T02:38:13;18.20;;;10.60;;
28724;SDS011;43472;48.980;9.646;2024-01-07T02:43:15;16.38;;;10.18;;
28724;SDS011;43472;48.980;9.646;2024-01-07T02:48:17;17.30;;;10.63;;
28724;SDS011;43472;48.980;9.646;2024-01-07T02:53:19;21.05;;;10.73;;
28724;SDS011;43472;48.980;9.646;2024-01-07T02:58:20;14.25;;;9.25;;
28724;SDS011;43472;48.980;9.646;2024-01-07T03:03:22;18.05;;;9.85;;
28724;SDS011;43472;48.980;9.646;2024-01-07T03:08:24;20.77;;;10.40;;
28724;SDS011;43472;48.980;9.646;2024-01-07T03:13:26;19.05;;;10.25;;
28724;SDS011;43472;48.980;9.646;2024-01-07T03:18:28;17.92;;;9.98;;
28724;SDS011;43472;48.980;9.646;2024-01-07T03:23:31;19.50;;;9.75;;
28724;SDS011;43472;48.980;9.646;2024-01-07T03:28:33;16.45;;;10.38;;
28724;SDS011;43472;48.980;9.646;2024-01-07T03:33:35;16.77;;;10.00;;
28724;SDS011;43472;48.980;9.646;2024-01-07T03:38:39;14.63;;;9.68;;
28724;SDS011;43472;48.980;9.646;2024-01-07T03:43:41;16.15;;;9.50;;
28724;SDS011;43472;48.980;9.646;2024-01-07T03:48:43;15.90;;;10.07;;
28724;SDS011;43472;48.980;9.646;2024-01-07T03:53:46;15.95;;;10.02;;
28724;SDS011;43472;48.980;9.646;2024-01-07T03:58:47;15.93;;;9.60;;
28724;SDS011;43472;48.980;9.646;2024-01-07T04:03:49;16.60;;;10.30;;
28724;SDS011;43472;48.980;9.646;2024-01-07T04:08:51;17.60;;;10.20;;
28724;SDS011;43472;48.980;9.646;2024-01-07T04:13:53;20.25;;;9.93;;
28724;SDS011;43472;48.980;9.646;2024-01-07T04:18:55;16.15;;;9.82;;
28724;SDS011;43472;48.980;9.646;2024-01-07T04:23:56;15.35;;;9.63;;
28724;SDS011;43472;48.980;9.646;2024-01-07T04:28:58;18.23;;;9.77;;
28724;SDS011;43472;48.980;9.646;2024-01-07T04:34:00;17.45;;;10.20;;
28724;SDS011;43472;48.980;9.646;2024-01-07T04:39:02;17.50;;;10.63;;
28724;SDS011;43472;48.980;9.646;2024-01-07T04:44:04;17.90;;;10.85;;
28724;SDS011;43472;48.980;9.646;2024-01-07T04:49:06;18.55;;;10.07;;
28724;SDS011;43472;48.980;9.646;2024-01-07T04:54:08;20.08;;;11.10;;
28724;SDS011;43472;48.980;9.646;2024-01-07T04:59:09;16.90;;;10.73;;
28724;SDS011;43472;48.980;9.646;2024-01-07T05:04:11;23.65;;;11.30;;
28724;SDS011;43472;48.980;9.646;2024-01-07T05:09:13;15.13;;;9.68;;
28724;SDS011;43472;48.980;9.646;2024-01-07T05:14:15;19.50;;;11.02;;
28724;SDS011;43472;48.980;9.646;2024-01-07T05:19:17;18.48;;;10.45;;
28724;SDS011;43472;48.980;9.646;2024-01-07T05:24:19;17.50;;;10.85;;
28724;SDS011;43472;48.980;9.646;2024-01-07T05:29:21;18.85;;;10.82;;
28724;SDS011;43472;48.980;9.646;2024-01-07T05:34:23;17.05;;;10.40;;
28724;SDS011;43472;48.980;9.646;2024-01-07T05:39:25;16.10;;;10.55;;
28724;SDS011;43472;48.980;9.646;2024-01-07T05:44:27;14.30;;;9.63;;
28724;SDS011;43472;48.980;9.646;2024-01-07T05:49:30;17.58;;;9.90;;
28724;SDS011;43472;48.980;9.646;2024-01-07T05:54:32;18.40;;;9.48;;
28724;SDS011;43472;48.980;9.646;2024-01-07T05:59:34;18.17;;;9.27;;
28724;SDS011;43472;48.980;9.646;2024-01-07T06:04:39;12.85;;;9.55;;
28724;SDS011;43472;48.980;9.646;2024-01-07T06:09:41;15.10;;;9.80;;
28724;SDS011;43472;48.980;9.646;2024-01-07T06:14:42;14.02;;;8.80;;
28724;SDS011;43472;48.980;9.646;2024-01-07T06:19:44;16.02;;;9.68;;
28724;SDS011;43472;48.980;9.646;2024-01-07T06:24:46;16.67;;;10.18;;
28724;SDS011;43472;48.980;9.646;2024-01-07T06:29:48;17.33;;;9.95;;
28724;SDS011;43472;48.980;9.646;2024-01-07T06:34:50;16.55;;;9.75;;
28724;SDS011;43472;48.980;9.646;2024-01-07T06:39:51;17.25;;;9.27;;
28724;SDS011;43472;48.980;9.646;2024-01-07T06:44:53;13.30;;;8.23;;
28724;SDS011;43472;48.980;9.646;2024-01-07T06:49:55;8.63;;;5.95;;
28724;SDS011;43472;48.980;9.646;2024-01-07T06:54:57;14.02;;;6.28;;
28724;SDS011;43472;48.980;9.646;2024-01-07T06:59:59;8.65;;;5.57;;
28724;SDS011;43472;48.980;9.646;2024-01-07T07:05:01;11.20;;;5.53;;
28724;SDS011;43472;48.980;9.646;2024-01-07T07:10:03;9.23;;;4.82;;
28724;SDS011;43472;48.980;9.646;2024-01-07T07:15:06;9.95;;;5.13;;
28724;SDS011;43472;48.980;9.646;2024-01-07T07:20:08;8.73;;;5.07;;
28724;SDS011;43472;48.980;9.646;2024-01-07T07:25:10;9.07;;;5.25;;
28724;SDS011;43472;48.980;9.646;2024-01-07T07:30:12;7.93;;;5.20;;
28724;SDS011;43472;48.980;9.646;2024-01-07T07:35:14;9.07;;;5.88;;
28724;SDS011;43472;48.980;9.646;2024-01-07T07:40:16;9.70;;;5.75;;
28724;SDS011;43472;48.980;9.646;2024-01-07T07:45:18;11.07;;;5.80;;
28724;SDS011;43472;48.980;9.646;2024-01-07T07:50:19;9.95;;;5.57;;
28724;SDS011;43472;48.980;9.646;2024-01-07T07:55:23;7.63;;;5.03;;
28724;SDS011;43472;48.980;9.646;2024-01-07T08:00:25;8.68;;;4.68;;
28724;SDS011;43472;48.980;9.646;2024-01-07T08:05:27;9.10;;;4.78;;
28724;SDS011;43472;48.980;9.646;2024-01-07T08:10:29;8.43;;;4.13;;
28724;SDS011;43472;48.980;9.646;2024-01-07T08:15:33;10.35;;;4.32;;
28724;SDS011;43472;48.980;9.646;2024-01-07T08:20:35;7.88;;;4.50;;
28724;SDS011;43472;48.980;9.646;2024-01-07T08:25:36;11.30;;;5.85;;
28724;SDS011;43472;48.980;9.646;2024-01-07T08:30:38;10.07;;;4.78;;
28724;SDS011;43472;48.980;9.646;2024-01-07T08:35:40;9.82;;;5.50;;
28724;SDS011;43472;48.980;9.646;2024-01-07T08:40:42;6.90;;;4.40;;
28724;SDS011;43472;48.980;9.646;2024-01-07T08:45:44;8.30;;;5.07;;
28724;SDS011;43472;48.980;9.646;2024-01-07T08:50:46;8.13;;;4.28;;
28724;SDS011;43472;48.980;9.646;2024-01-07T08:55:48;7.57;;;4.78;;
28724;SDS011;43472;48.980;9.646;2024-01-07T09:00:50;7.43;;;4.90;;
28724;SDS011;43472;48.980;9.646;2024-01-07T09:05:52;7.88;;;4.53;;
28724;SDS011;43472;48.980;9.646;2024-01-07T09:10:54;9.40;;;5.25;;
28724;SDS011;43472;48.980;9.646;2024-01-07T09:15:55;8.80;;;5.05;;
28724;SDS011;43472;48.980;9.646;2024-01-07T09:20:57;17.27;;;6.15;;
28724;SDS011;43472;48.980;9.646;2024-01-07T09:25:59;11.25;;;6.40;;
28724;SDS011;43472;48.980;9.646;2024-01-07T09:31:01;10.85;;;6.75;;
28724;SDS011;43472;48.980;9.646;2024-01-07T09:36:03;9.65;;;5.45;;
28724;SDS011;43472;48.980;9.646;2024-01-07T09:41:20;9.13;;;5.55;;
28724;SDS011;43472;48.980;9.646;2024-01-07T09:46:22;10.45;;;5.07;;
28724;SDS011;43472;48.980;9.646;2024-01-07T09:51:25;8.35;;;5.15;;
28724;SDS011;43472;48.980;9.646;2024-01-07T09:56:34;9.85;;;5.90;;
28724;SDS011;43472;48.980;9.646;2024-01-07T10:06:43;7.78;;;5.15;;
28724;SDS011;43472;48.980;9.646;2024-01-07T10:11:45;8.75;;;5.25;;
28724;SDS011;43472;48.980;9.646;2024-01-07T10:16:47;7.78;;;4.75;;
28724;SDS011;43472;48.980;9.646;2024-01-07T10:22:00;10.25;;;4.97;;
28724;SDS011;43472;48.980;9.646;2024-01-07T10:27:04;8.40;;;4.45;;
28724;SDS011;43472;48.980;9.646;2024-01-07T10:32:06;8.98;;;5.55;;
28724;SDS011;43472;48.980;9.646;2024-01-07T10:37:08;9.23;;;5.20;;
28724;SDS011;43472;48.980;9.646;2024-01-07T10:42:12;7.35;;;4.55;;
28724;SDS011;43472;48.980;9.646;2024-01-07T10:47:15;8.27;;;4.82;;
28724;SDS011;43472;48.980;9.646;2024-01-07T10:52:20;6.30;;;4.32;;
28724;SDS011;43472;48.980;9.646;2024-01-07T10:57:27;5.50;;;3.85;;
28724;SDS011;43472;48.980;9.646;2024-01-07T11:08:52;5.60;;;4.00;;
28724;SDS011;43472;48.980;9.646;2024-01-07T11:13:37;7.25;;;4.75;;
28724;SDS011;43472;48.980;9.646;2024-01-07T11:18:46;7.50;;;4.95;;
28724;SDS011;43472;48.980;9.646;2024-01-07T11:23:53;8.35;;;5.20;;
28724;SDS011;43472;48.980;9.646;2024-01-07T11:28:55;8.40;;;5.07;;
28724;SDS011;43472;48.980;9.646;2024-01-07T11:33:58;31.65;;;11.70;;
28724;SDS011;43472;48.980;9.646;2024-01-07T11:39:00;9.80;;;5.90;;
28724;SDS011;43472;48.980;9.646;2024-01-07T11:44:03;13.18;;;7.80;;
28724;SDS011;43472;48.980;9.646;2024-01-07T11:49:08;16.83;;;8.48;;
28724;SDS011;43472;48.980;9.646;2024-01-07T11:54:11;14.00;;;7.40;;
28724;SDS011;43472;48.980;9.646;2024-01-07T11:59:13;8.05;;;5.53;;
28724;SDS011;43472;48.980;9.646;2024-01-07T12:04:15;12.80;;;7.53;;
28724;SDS011;43472;48.980;9.646;2024-01-07T12:09:17;9.40;;;5.70;;
28724;SDS011;43472;48.980;9.646;2024-01-07T12:14:19;10.50;;;7.05;;
28724;SDS011;43472;48.980;9.646;2024-01-07T12:19:21;10.70;;;6.55;;
28724;SDS011;43472;48.980;9.646;2024-01-07T12:24:25;12.65;;;7.57;;
28724;SDS011;43472;48.980;9.646;2024-01-07T12:29:27;14.32;;;8.02;;
28724;SDS011;43472;48.980;9.646;2024-01-07T12:34:29;18.27;;;10.38;;
28724;SDS011;43472;48.980;9.646;2024-01-07T12:39:32;15.98;;;8.82;;
28724;SDS011;43472;48.980;9.646;2024-01-07T12:44:36;14.75;;;8.10;;
28724;SDS011;43472;48.980;9.646;2024-01-07T12:49:38;16.13;;;8.40;;
28724;SDS011;43472;48.980;9.646;2024-01-07T12:54:40;11.70;;;7.38;;
28724;SDS011;43472;48.980;9.646;2024-01-07T12:59:42;16.17;;;9.13;;
28724;SDS011;43472;48.980;9.646;2024-01-07T13:04:45;16.83;;;8.52;;
28724;SDS011;43472;48.980;9.646;2024-01-07T13:09:47;15.48;;;8.77;;
28724;SDS011;43472;48.980;9.646;2024-01-07T13:14:49;15.30;;;9.18;;
28724;SDS011;43472;48.980;9.646;2024-01-07T13:19:51;17.42;;;9.18;;
28724;SDS011;43472;48.980;9.646;2024-01-07T13:24:54;14.82;;;8.70;;
28724;SDS011;43472;48.980;9.646;2024-01-07T13:29:58;14.48;;;8.77;;
28724;SDS011;43472;48.980;9.646;2024-01-07T13:35:00;13.93;;;8.23;;
28724;SDS011;43472;48.980;9.646;2024-01-07T13:40:04;12.65;;;7.07;;
28724;SDS011;43472;48.980;9.646;2024-01-07T13:45:06;12.00;;;7.45;;
28724;SDS011;43472;48.980;9.646;2024-01-07T13:50:08;13.68;;;8.00;;
28724;SDS011;43472;48.980;9.646;2024-01-07T13:55:11;11.35;;;6.45;;
28724;SDS011;43472;48.980;9.646;2024-01-07T14:00:15;14.05;;;7.28;;
28724;SDS011;43472;48.980;9.646;2024-01-07T14:05:20;12.85;;;7.18;;
28724;SDS011;43472;48.980;9.646;2024-01-07T14:10:22;12.57;;;7.00;;
28724;SDS011;43472;48.980;9.646;2024-01-07T14:15:25;12.40;;;6.95;;
28724;SDS011;43472;48.980;9.646;2024-01-07T14:20:27;12.85;;;7.00;;
28724;SDS011;43472;48.980;9.646;2024-01-07T14:25:29;10.23;;;6.18;;
28724;SDS011;43472;48.980;9.646;2024-01-07T14:30:32;10.20;;;5.60;;
28724;SDS011;43472;48.980;9.646;2024-01-07T14:35:34;11.10;;;6.47;;
28724;SDS011;43472;48.980;9.646;2024-01-07T14:40:36;9.73;;;5.72;;
28724;SDS011;43472;48.980;9.646;2024-01-07T14:45:38;9.43;;;6.18;;
28724;SDS011;43472;48.980;9.646;2024-01-07T14:50:40;11.15;;;6.10;;
28724;SDS011;43472;48.980;9.646;2024-01-07T14:55:43;12.00;;;6.82;;
28724;SDS011;43472;48.980;9.646;2024-01-07T15:00:44;9.30;;;5.80;;
28724;SDS011;43472;48.980;9.646;2024-01-07T15:05:47;11.68;;;6.13;;
28724;SDS011;43472;48.980;9.646;2024-01-07T15:10:50;16.85;;;8.48;;
28724;SDS011;43472;48.980;9.646;2024-01-07T15:15:52;18.90;;;8.82;;
28724;SDS011;43472;48.980;9.646;2024-01-07T15:20:54;15.32;;;7.78;;
28724;SDS011;43472;48.980;9.646;2024-01-07T15:25:56;13.48;;;7.70;;
28724;SDS011;43472;48.980;9.646;2024-01-07T15:30:59;11.98;;;6.45;;
28724;SDS011;43472;48.980;9.646;2024-01-07T15:36:02;11.50;;;5.72;;
28724;SDS011;43472;48.980;9.646;2024-01-07T15:41:04;10.68;;;4.70;;
28724;SDS011;43472;48.980;9.646;2024-01-07T15:46:08;9.32;;;4.50;;
28724;SDS011;43472;48.980;9.646;2024-01-07T15:51:12;7.93;;;4.57;;
28724;SDS011;43472;48.980;9.646;2024-01-07T15:56:14;10.32;;;5.00;;
28724;SDS011;43472;48.980;9.646;2024-01-07T16:01:18;8.80;;;4.30;;
28724;SDS011;43472;48.980;9.646;2024-01-07T16:06:20;8.30;;;4.25;;
28724;SDS011;43472;48.980;9.646;2024-01-07T16:11:25;8.05;;;4.47;;
28724;SDS011;43472;48.980;9.646;2024-01-07T16:16:28;9.80;;;4.65;;
28724;SDS011;43472;48.980;9.646;2024-01-07T16:21:30;6.85;;;4.22;;
28724;SDS011;43472;48.980;9.646;2024-01-07T16:26:33;8.20;;;4.68;;
28724;SDS011;43472;48.980;9.646;2024-01-07T16:31:36;9.60;;;4.00;;
28724;SDS011;43472;48.980;9.646;2024-01-07T16:36:41;8.30;;;4.65;;
28724;SDS011;43472;48.980;9.646;2024-01-07T16:41:43;8.93;;;4.20;;
28724;SDS011;43472;48.980;9.646;2024-01-07T16:46:46;8.05;;;4.72;;
28724;SDS011;43472;48.980;9.646;2024-01-07T16:51:47;7.85;;;4.47;;
28724;SDS011;43472;48.980;9.646;2024-01-07T16:56:50;6.68;;;3.80;;
28724;SDS011;43472;48.980;9.646;2024-01-07T17:01:52;8.07;;;4.47;;
28724;SDS011;43472;48.980;9.646;2024-01-07T17:06:55;9.00;;;5.10;;
28724;SDS011;43472;48.980;9.646;2024-01-07T17:11:59;8.45;;;5.03;;
28724;SDS011;43472;48.980;9.646;2024-01-07T17:17:01;9.27;;;4.93;;
28724;SDS011;43472;48.980;9.646;2024-01-07T17:22:03;10.05;;;5.78;;
28724;SDS011;43472;48.980;9.646;2024-01-07T17:27:05;10.10;;;5.88;;
28724;SDS011;43472;48.980;9.646;2024-01-07T17:32:07;11.18;;;5.95;;
28724;SDS011;43472;48.980;9.646;2024-01-07T17:37:13;9.18;;;4.78;;
28724;SDS011;43472;48.980;9.646;2024-01-07T17:42:15;13.48;;;5.18;;
28724;SDS011;43472;48.980;9.646;2024-01-07T17:47:19;14.80;;;7.10;;
28724;SDS011;43472;48.980;9.646;2024-01-07T17:52:22;16.30;;;6.93;;
28724;SDS011;43472;48.980;9.646;2024-01-07T17:57:26;10.20;;;5.85;;
28724;SDS011;43472;48.980;9.646;2024-01-07T18:02:28;13.07;;;6.50;;
28724;SDS011;43472;48.980;9.646;2024-01-07T18:07:30;11.00;;;6.22;;
28724;SDS011;43472;48.980;9.646;2024-01-07T18:12:32;11.82;;;5.78;;
28724;SDS011;43472;48.980;9.646;2024-01-07T18:17:34;9.23;;;4.88;;
28724;SDS011;43472;48.980;9.646;2024-01-07T18:22:38;8.75;;;5.28;;
28724;SDS011;43472;48.980;9.646;2024-01-07T18:27:41;14.93;;;6.22;;
28724;SDS011;43472;48.980;9.646;2024-01-07T18:32:44;13.88;;;5.20;;
28724;SDS011;43472;48.980;9.646;2024-01-07T18:37:47;10.93;;;6.38;;
28724;SDS011;43472;48.980;9.646;2024-01-07T18:42:52;9.48;;;5.20;;
28724;SDS011;43472;48.980;9.646;2024-01-07T18:47:55;10.23;;;4.18;;
28724;SDS011;43472;48.980;9.646;2024-01-07T18:52:58;6.63;;;4.32;;
28724;SDS011;43472;48.980;9.646;2024-01-07T18:58:00;6.65;;;4.30;;
28724;SDS011;43472;48.980;9.646;2024-01-07T19:03:03;7.38;;;4.38;;
28724;SDS011;43472;48.980;9.646;2024-01-07T19:08:05;10.20;;;5.13;;
28724;SDS011;43472;48.980;9.646;2024-01-07T19:13:08;7.75;;;3.47;;
28724;SDS011;43472;48.980;9.646;2024-01-07T19:18:11;10.23;;;4.88;;
28724;SDS011;43472;48.980;9.646;2024-01-07T19:23:14;10.23;;;5.90;;
28724;SDS011;43472;48.980;9.646;2024-01-07T19:28:16;4.68;;;3.30;;
28724;SDS011;43472;48.980;9.646;2024-01-07T19:33:19;5.95;;;4.00;;
28724;SDS011;43472;48.980;9.646;2024-01-07T19:38:21;5.18;;;3.80;;
28724;SDS011;43472;48.980;9.646;2024-01-07T19:43:24;5.90;;;4.07;;
28724;SDS011;43472;48.980;9.646;2024-01-07T19:48:29;7.40;;;4.10;;
28724;SDS011;43472;48.980;9.646;2024-01-07T19:53:31;5.25;;;3.90;;
28724;SDS011;43472;48.980;9.646;2024-01-07T19:58:33;4.95;;;3.72;;
28724;SDS011;43472;48.980;9.646;2024-01-07T20:03:36;5.15;;;3.38;;
28724;SDS011;43472;48.980;9.646;2024-01-07T20:08:43;5.82;;;3.63;;
28724;SDS011;43472;48.980;9.646;2024-01-07T20:13:46;4.40;;;2.88;;
28724;SDS011;43472;48.980;9.646;2024-01-07T20:18:49;6.55;;;3.88;;
28724;SDS011;43472;48.980;9.646;2024-01-07T20:23:54;5.47;;;3.03;;
28724;SDS011;43472;48.980;9.646;2024-01-07T20:29:00;5.47;;;3.05;;
28724;SDS011;43472;48.980;9.646;2024-01-07T20:34:09;7.03;;;3.30;;
28724;SDS011;43472;48.980;9.646;2024-01-07T20:39:13;4.35;;;3.25;;
28724;SDS011;43472;48.980;9.646;2024-01-07T20:44:16;4.38;;;2.85;;
28724;SDS011;43472;48.980;9.646;2024-01-07T20:49:18;5.03;;;2.95;;
28724;SDS011;43472;48.980;9.646;2024-01-07T20:54:21;4.50;;;3.33;;
28724;SDS011;43472;48.980;9.646;2024-01-07T20:59:23;5.10;;;3.67;;
28724;SDS011;43472;48.980;9.646;2024-01-07T21:04:25;3.83;;;2.90;;
28724;SDS011;43472;48.980;9.646;2024-01-07T21:09:28;5.28;;;3.20;;
28724;SDS011;43472;48.980;9.646;2024-01-07T21:14:32;7.47;;;3.83;;
28724;SDS011;43472;48.980;9.646;2024-01-07T21:19:34;5.50;;;3.20;;
28724;SDS011;43472;48.980;9.646;2024-01-07T21:24:37;4.97;;;3.28;;
28724;SDS011;43472;48.980;9.646;2024-01-07T21:29:38;3.38;;;2.72;;
28724;SDS011;43472;48.980;9.646;2024-01-07T21:34:42;3.15;;;2.53;;
28724;SDS011;43472;48.980;9.646;2024-01-07T21:39:44;7.43;;;4.43;;
28724;SDS011;43472;48.980;9.646;2024-01-07T21:44:46;3.08;;;2.22;;
28724;SDS011;43472;48.980;9.646;2024-01-07T21:49:49;3.20;;;2.47;;
28724;SDS011;43472;48.980;9.646;2024-01-07T21:54:52;22.35;;;10.07;;
28724;SDS011;43472;48.980;9.646;2024-01-07T21:59:54;3.22;;;2.10;;
28724;SDS011;43472;48.980;9.646;2024-01-07T22:04:56;4.05;;;2.38;;
28724;SDS011;43472;48.980;9.646;2024-01-07T22:09:58;5.30;;;2.78;;
28724;SDS011;43472;48.980;9.646;2024-01-07T22:14:59;4.43;;;2.58;;
28724;SDS011;43472;48.980;9.646;2024-01-07T22:20:03;4.00;;;2.38;;
28724;SDS011;43472;48.980;9.646;2024-01-07T22:25:06;5.60;;;3.10;;
28724;SDS011;43472;48.980;9.646;2024-01-07T22:30:10;2.35;;;1.65;;
28724;SDS011;43472;48.980;9.646;2024-01-07T22:35:12;4.22;;;2.22;;
28724;SDS011;43472;48.980;9.646;2024-01-07T22:40:14;1.90;;;1.67;;
28724;SDS011;43472;48.980;9.646;2024-01-07T22:45:16;3.08;;;2.00;;
28724;SDS011;43472;48.980;9.646;2024-01-07T22:50:18;3.60;;;2.00;;
28724;SDS011;43472;48.980;9.646;2024-01-07T22:55:22;2.00;;;1.45;;
28724;SDS011;43472;48.980;9.646;2024-01-07T23:00:24;2.05;;;1.50;;
28724;SDS011;43472;48.980;9.646;2024-01-07T23:05:26;2.13;;;1.80;;
28724;SDS011;43472;48.980;9.646;2024-01-07T23:10:28;5.50;;;1.70;;
28724;SDS011;43472;48.980;9.646;2024-01-07T23:15:30;2.38;;;1.60;;
28724;SDS011;43472;48.980;9.646;2024-01-07T23:20:32;4.95;;;1.70;;
28724;SDS011;43472;48.980;9.646;2024-01-07T23:25:36;2.33;;;1.92;;
28724;SDS011;43472;48.980;9.646;2024-01-07T23:30:39;3.45;;;1.70;;
28724;SDS011;43472;48.980;9.646;2024-01-07T23:35:42;2.42;;;1.70;;
28724;SDS011;43472;48.980;9.646;2024-01-07T23:40:58;2.63;;;1.60;;
28724;SDS011;43472;48.980;9.646;2024-01-07T23:46:00;2.83;;;1.70;;
28724;SDS011;43472;48.980;9.646;2024-01-07T23:51:02;1.90;;;1.60;;
28724;SDS011;43472;48.980;9.646;2024-01-07T23:56:04;3.40;;;1.85;;
